Pride Of Canterbury — MPQZ6 — position and weather

sailwx.info

Track history (hours):
 
Tides and Currents Weather Stations Pressure Air Temp Water Temp Dewpoint Dewpoint Depression Visibility Wind Speed Wind Dir Waves Ship Positions

Pride Of Canterbury

Operator: P & O Ferries

Last reported at 2018-Feb-21 16:37 UTC. Time now 2018-Feb-21 17:41 UTC.
Position N 51°07' E 001°20'.

Length 180 m; draft 5.7 m.

Type: Passenger vessel. MMSI: 232001060.

Date/timePositionNaut miles runAvg speedWind from/ knotsBaromVisibWave heightAir tempDewpointWater temp
2018-Feb-21 16:37N 51°07' E 001°20'1 4.7
2018-Feb-21 16:30N 51°07' E 001°21'816.6
2018-Feb-21 16:01N 51°04' E 001°33'816.7
2018-Feb-21 15:30N 50°59' E 001°44'5 9.3
2018-Feb-21 15:00N 50°58' E 001°51'0 0.0
2018-Feb-21 14:25N 50°58' E 001°51'4 8.8
2018-Feb-21 14:01N 50°58' E 001°45'1018.4
2018-Feb-21 13:29N 51°02' E 001°31'917.9
2018-Feb-21 13:00N 51°07' E 001°20'1 0.7
2018-Feb-21 12:04N 51°07' E 001°20'0 0.9
2018-Feb-21 11:58N 51°07' E 001°20'816.9
2018-Feb-21 11:30N 51°04' E 001°31'918.6
2018-Feb-21 11:01N 50°59' E 001°43'5 5.8
2018-Feb-21 10:11N 50°58' E 001°51'0 0.4
2018-Feb-21 09:50N 50°58' E 001°51'413.0
2018-Feb-21 09:30N 50°58' E 001°44'914.1
2018-Feb-21 08:54N 51°00' E 001°31'717.1
2018-Feb-21 08:31N 51°05' E 001°24'2 1.4
2018-Feb-21 07:05N 51°07' E 001°22'117.1
2018-Feb-21 07:00N 51°07' E 001°24'917.1
2018-Feb-21 06:30N 51°02' E 001°36'816.9
2018-Feb-21 06:00N 50°58' E 001°48'2 4.3
2018-Feb-21 05:30N 50°58' E 001°51'0 0.0
2018-Feb-21 04:56N 50°58' E 001°51'2 5.5
2018-Feb-21 04:29N 50°58' E 001°47'1317.8
2018-Feb-21 03:47N 51°04' E 001°29'5 2.8
2018-Feb-21 01:51N 51°07' E 001°23'618.3
2018-Feb-21 01:30N 51°04' E 001°32'918.3
2018-Feb-21 01:00N 50°59' E 001°44'5 8.6
2018-Feb-21 00:27N 50°58' E 001°51'0 0.0
2018-Feb-21 00:00N 50°58' E 001°51'0 0.7
2018-Feb-20 23:25N 50°58' E 001°50'614.0
2018-Feb-20 22:59N 50°58' E 001°41'715.8
2018-Feb-20 22:30N 51°02' E 001°31'815.5
2018-Feb-20 21:59N 51°07' E 001°20'1 1.5
2018-Feb-20 21:28N 51°07' E 001°20'0 0.0
2018-Feb-20 20:57N 51°07' E 001°20'612.6
2018-Feb-20 20:31N 51°05' E 001°28'918.3
2018-Feb-20 20:00N 51°00' E 001°40'713.4
2018-Feb-20 19:29N 50°58' E 001°51'0 0.0
2018-Feb-20 19:00N 50°58' E 001°51'5 9.6
2018-Feb-20 18:30N 50°58' E 001°44'817.0
2018-Feb-20 18:01N 51°03' E 001°32'9 6.1
2018-Feb-20 16:32N 51°07' E 001°20'0 1.4
2018-Feb-20 16:29N 51°07' E 001°20'714.4
2018-Feb-20 16:00N 51°05' E 001°31'816.5
2018-Feb-20 15:31N 51°00' E 001°41'713.4
2018-Feb-20 15:00N 50°58' E 001°51'0 0.1
2018-Feb-20 14:28N 50°58' E 001°51'1 1.1
2018-Feb-20 13:58N 50°58' E 001°50'918.7
2018-Feb-20 13:28N 51°01' E 001°36'918.6
2018-Feb-20 13:00N 51°06' E 001°25'3 3.0
2018-Feb-20 11:53N 51°07' E 001°20'616.0
2018-Feb-20 11:30N 51°05' E 001°29'918.6
2018-Feb-20 11:00N 50°60' E 001°41'612.2
2018-Feb-20 10:30N 50°58' E 001°51'0 0.2
2018-Feb-20 10:00N 50°58' E 001°51'2 4.0
2018-Feb-20 09:29N 50°58' E 001°48'815.7
2018-Feb-20 09:00N 50°59' E 001°36'917.9
2018-Feb-20 08:30N 51°05' E 001°25'4 4.9
2018-Feb-20 07:42N 51°07' E 001°20'0 0.3
2018-Feb-20 07:19N 51°07' E 001°20'413.3
2018-Feb-20 07:00N 51°06' E 001°26'816.8
2018-Feb-20 06:31N 51°02' E 001°38'815.7
2018-Feb-20 06:01N 50°58' E 001°49'1 2.5
2018-Feb-20 05:28N 50°58' E 001°51'0 0.0
2018-Feb-20 05:00N 50°58' E 001°51'1 2.5
2018-Feb-20 04:30N 50°58' E 001°49'816.4
2018-Feb-20 04:00N 51°00' E 001°37'917.8
2018-Feb-20 03:31N 51°05' E 001°25'4 5.9
2018-Feb-20 02:51N 51°07' E 001°20'0 0.0
2018-Feb-20 02:28N 51°07' E 001°20'4 8.7
2018-Feb-20 02:00N 51°06' E 001°26'917.9
2018-Feb-20 01:30N 51°02' E 001°39'815.4
2018-Feb-20 01:00N 50°58' E 001°50'1 2.5
2018-Feb-20 00:31N 50°58' E 001°51'0 0.0
2018-Feb-20 00:00N 50°58' E 001°51'1 1.8
2018-Feb-19 23:30N 50°58' E 001°50'5 9.9
2018-Feb-19 23:00N 50°58' E 001°42'713.5
2018-Feb-19 22:31N 51°01' E 001°33'917.7
2018-Feb-19 21:59N 51°07' E 001°21'1 0.7
2018-Feb-19 20:52N 51°07' E 001°20'513.8
2018-Feb-19 20:30N 51°06' E 001°28'918.7
2018-Feb-19 20:00N 51°01' E 001°40'714.4
2018-Feb-19 19:31N 50°58' E 001°51'0 0.1
2018-Feb-19 19:00N 50°58' E 001°51'1 2.9
2018-Feb-19 18:30N 50°58' E 001°49'816.5
2018-Feb-19 18:00N 51°00' E 001°36'918.4
2018-Feb-19 17:30N 51°06' E 001°24'3 3.0
2018-Feb-19 16:28N 51°07' E 001°20'612.1
2018-Feb-19 16:00N 51°05' E 001°28'917.8
2018-Feb-19 15:30N 51°00' E 001°40'714.2
2018-Feb-19 15:00N 50°58' E 001°51'0 0.1
2018-Feb-19 14:21N 50°58' E 001°51'1 2.1
2018-Feb-19 14:00N 50°58' E 001°50'1017.8
2018-Feb-19 13:28N 51°01' E 001°35'818.3
2018-Feb-19 13:01N 51°06' E 001°24'3 3.0
2018-Feb-19 12:01N 51°07' E 001°20'0 1.4
2018-Feb-19 11:56N 51°07' E 001°20'716.0
2018-Feb-19 11:30N 51°05' E 001°31'918.5
2018-Feb-19 11:00N 50°60' E 001°42'611.7
2018-Feb-19 10:31N 50°58' E 001°51'0 0.0
2018-Feb-19 10:00N 50°58' E 001°51'1 1.6
2018-Feb-19 09:31N 50°58' E 001°50'816.0
2018-Feb-19 09:00N 50°60' E 001°37'917.7
2018-Feb-19 08:30N 51°05' E 001°26'4 6.1
2018-Feb-19 07:47N 51°07' E 001°20'0 0.1
2018-Feb-19 07:22N 51°07' E 001°20'3 9.6
2018-Feb-19 07:01N 51°06' E 001°25'816.9
2018-Feb-19 06:30N 51°02' E 001°37'816.4
2018-Feb-19 06:00N 50°58' E 001°48'2 3.0
2018-Feb-19 05:28N 50°58' E 001°51'0 0.0
2018-Feb-19 04:57N 50°58' E 001°51'2 4.2
2018-Feb-19 04:30N 50°58' E 001°48'1016.2
2018-Feb-19 03:55N 51°01' E 001°34'615.7
2018-Feb-19 03:30N 51°05' E 001°26'4 2.9
2018-Feb-19 02:07N 51°07' E 001°20'1 5.8
2018-Feb-19 02:00N 51°07' E 001°21'815.7
2018-Feb-19 01:30N 51°04' E 001°33'817.0
2018-Feb-19 01:01N 50°59' E 001°44'5 7.4
2018-Feb-19 00:22N 50°58' E 001°51'0 0.0
2018-Feb-18 23:57N 50°58' E 001°51'0 0.0
2018-Feb-18 23:27N 50°58' E 001°51'512.0
2018-Feb-18 23:01N 50°58' E 001°42'816.9
2018-Feb-18 22:30N 51°02' E 001°30'815.6
2018-Feb-18 21:58N 51°07' E 001°20'0 0.0
2018-Feb-18 21:21N 51°07' E 001°20'3 8.1
2018-Feb-18 21:00N 51°06' E 001°24'611.7
2018-Feb-18 20:31N 51°03' E 001°32'713.7
2018-Feb-18 20:00N 50°59' E 001°41'612.4
2018-Feb-18 19:31N 50°58' E 001°51'0 0.2
2018-Feb-18 18:56N 50°58' E 001°51'1 2.9
2018-Feb-18 18:30N 50°58' E 001°49'816.1
2018-Feb-18 18:00N 50°60' E 001°36'918.4
2018-Feb-18 17:31N 51°05' E 001°25'4 3.5
2018-Feb-18 16:29N 51°07' E 001°20'715.9
2018-Feb-18 16:00N 51°06' E 001°32'918.5
2018-Feb-18 15:31N 50°59' E 001°42'610.4
2018-Feb-18 14:58N 50°58' E 001°51'0 0.0
2018-Feb-18 14:24N 50°58' E 001°51'1 1.5
2018-Feb-18 14:00N 50°58' E 001°50'918.5
2018-Feb-18 13:30N 51°01' E 001°36'918.8
2018-Feb-18 13:00N 51°05' E 001°23'3 2.4
2018-Feb-18 11:54N 51°07' E 001°20'614.9
2018-Feb-18 11:30N 51°05' E 001°29'918.5
2018-Feb-18 11:00N 51°00' E 001°41'710.9
2018-Feb-18 10:24N 50°58' E 001°51'0 0.0
2018-Feb-18 10:00N 50°58' E 001°51'3 6.4
2018-Feb-18 09:30N 50°58' E 001°46'917.3
2018-Feb-18 09:00N 51°02' E 001°34'917.5
2018-Feb-18 08:30N 51°07' E 001°22'1 2.8
2018-Feb-18 08:00N 51°07' E 001°20'0 0.0
2018-Feb-18 07:28N 51°07' E 001°20'0 0.0
2018-Feb-18 06:59N 51°07' E 001°20'714.4
2018-Feb-18 06:31N 51°06' E 001°31'918.1
2018-Feb-18 06:00N 51°00' E 001°41'712.7
2018-Feb-18 05:29N 50°58' E 001°51'0 0.0
2018-Feb-18 05:01N 50°58' E 001°51'4 8.2
2018-Feb-18 04:30N 50°58' E 001°44'815.2
2018-Feb-18 03:59N 51°01' E 001°33'714.7
2018-Feb-18 03:30N 51°06' E 001°25'3 2.6
2018-Feb-18 02:14N 51°07' E 001°20'2 8.4
2018-Feb-18 02:00N 51°07' E 001°23'816.5
2018-Feb-18 01:31N 51°04' E 001°35'816.7
2018-Feb-18 01:01N 50°58' E 001°45'4 5.6
2018-Feb-18 00:20N 50°58' E 001°51'0 0.0
2018-Feb-18 00:00N 50°58' E 001°51'0 0.0
2018-Feb-17 23:28N 50°58' E 001°51'3 5.7
2018-Feb-17 23:01N 50°58' E 001°47'918.3
2018-Feb-17 22:31N 51°02' E 001°34'918.4
2018-Feb-17 22:00N 51°07' E 001°21'1 1.7
2018-Feb-17 21:29N 51°07' E 001°20'0 0.3
2018-Feb-17 20:58N 51°07' E 001°20'818.0
2018-Feb-17 20:30N 51°04' E 001°32'1019.2
2018-Feb-17 20:00N 50°58' E 001°45'4 6.1
2018-Feb-17 19:21N 50°58' E 001°51'0 0.0
2018-Feb-17 18:55N 50°58' E 001°51'0 1.1
2018-Feb-17 18:30N 50°58' E 001°50'815.5
2018-Feb-17 18:00N 50°59' E 001°38'918.6
2018-Feb-17 17:31N 51°05' E 001°27'5 7.8
2018-Feb-17 16:54N 51°07' E 001°20'0 0.0
2018-Feb-17 16:29N 51°07' E 001°20'511.0
2018-Feb-17 16:00N 51°06' E 001°28'918.2
2018-Feb-17 15:30N 51°01' E 001°40'714.5
2018-Feb-17 15:00N 50°58' E 001°51'0 0.4
2018-Feb-17 14:30N 50°58' E 001°51'2 4.0
2018-Feb-17 14:00N 50°58' E 001°48'1018.8
2018-Feb-17 13:30N 51°02' E 001°34'918.7
2018-Feb-17 13:00N 51°07' E 001°22'1 1.5
2018-Feb-17 12:18N 51°07' E 001°20'2 8.3
2018-Feb-17 12:01N 51°07' E 001°24'917.9
2018-Feb-17 11:30N 51°02' E 001°36'816.3
2018-Feb-17 11:00N 50°58' E 001°47'2 2.9
2018-Feb-17 10:16N 50°58' E 001°51'0 0.0
2018-Feb-17 09:56N 50°58' E 001°51'613.8
2018-Feb-17 09:30N 50°58' E 001°42'917.5
2018-Feb-17 09:00N 51°03' E 001°30'813.4
2018-Feb-17 08:26N 51°07' E 001°20'0 0.0
2018-Feb-17 07:55N 51°07' E 001°20'0 0.3
2018-Feb-17 07:30N 51°07' E 001°20'815.9
2018-Feb-17 07:01N 51°04' E 001°31'1019.1
2018-Feb-17 06:31N 50°59' E 001°44'5 9.9
2018-Feb-17 06:00N 50°58' E 001°52'0 0.0
2018-Feb-17 05:29N 50°58' E 001°52'0 0.0
2018-Feb-17 05:00N 50°58' E 001°52'0 0.8
2018-Feb-17 04:30N 50°58' E 001°51'815.8
2018-Feb-17 04:00N 50°59' E 001°39'918.3
2018-Feb-17 03:30N 51°05' E 001°27'510.3
2018-Feb-17 03:00N 51°07' E 001°20'0 0.0
2018-Feb-17 02:24N 51°07' E 001°20'0 0.8
2018-Feb-17 02:00N 51°07' E 001°21'815.8
2018-Feb-17 01:30N 51°05' E 001°33'917.4
2018-Feb-17 01:00N 50°59' E 001°43'510.7
2018-Feb-17 00:30N 50°58' E 001°51'0 0.0
2018-Feb-17 00:00N 50°58' E 001°51'0 0.0
2018-Feb-16 23:30N 50°58' E 001°51'611.2
2018-Feb-16 23:01N 50°59' E 001°42'816.5
2018-Feb-16 22:30N 51°02' E 001°30'8 5.6
2018-Feb-16 21:03N 51°07' E 001°20'0 0.0
2018-Feb-16 20:58N 51°07' E 001°20'511.6
2018-Feb-16 20:30N 51°06' E 001°28'1018.9
2018-Feb-16 20:00N 50°60' E 001°40'714.3
2018-Feb-16 19:30N 50°58' E 001°51'0 0.1
2018-Feb-16 19:00N 50°58' E 001°51'3 6.3
2018-Feb-16 18:30N 50°58' E 001°46'816.2
2018-Feb-16 18:01N 51°01' E 001°34'918.0
2018-Feb-16 17:31N 51°06' E 001°23'2 2.6
2018-Feb-16 16:48N 51°07' E 001°20'0 0.2
2018-Feb-16 16:29N 51°07' E 001°20'816.5
2018-Feb-16 16:01N 51°05' E 001°32'918.5
2018-Feb-16 15:30N 50°59' E 001°43'5 9.1
2018-Feb-16 14:56N 50°58' E 001°51'0 0.0
2018-Feb-16 14:19N 50°58' E 001°51'1 3.3
2018-Feb-16 14:01N 50°58' E 001°49'918.4
2018-Feb-16 13:30N 51°00' E 001°35'918.5
2018-Feb-16 13:01N 51°06' E 001°23'3 2.8
2018-Feb-16 12:06N 51°07' E 001°20'0 0.9
2018-Feb-16 11:59N 51°07' E 001°20'715.0
2018-Feb-16 11:30N 51°04' E 001°30'917.7
2018-Feb-16 11:00N 50°59' E 001°42'6 8.1
2018-Feb-16 10:18N 50°58' E 001°51'0 0.0
2018-Feb-16 09:58N 50°58' E 001°51'1 2.9
2018-Feb-16 09:30N 50°58' E 001°49'817.0
2018-Feb-16 09:00N 51°00' E 001°36'918.0
2018-Feb-16 08:30N 51°06' E 001°25'3 2.9
2018-Feb-16 07:23N 51°07' E 001°20'410.2
2018-Feb-16 07:00N 51°06' E 001°26'815.6
2018-Feb-16 06:30N 51°02' E 001°36'815.5
2018-Feb-16 06:00N 50°58' E 001°47'2 4.9
2018-Feb-16 05:30N 50°58' E 001°51'0 0.0
2018-Feb-16 05:00N 50°58' E 001°51'2 3.8
2018-Feb-16 04:30N 50°58' E 001°48'917.9
2018-Feb-16 04:00N 51°00' E 001°34'918.3
2018-Feb-16 03:30N 51°06' E 001°23'2 2.9
2018-Feb-16 02:44N 51°07' E 001°20'1 5.8
2018-Feb-16 02:30N 51°07' E 001°22'816.8
2018-Feb-16 02:00N 51°04' E 001°35'816.6
2018-Feb-16 01:31N 50°59' E 001°44'5 9.1
2018-Feb-16 01:00N 50°58' E 001°52'0 0.0
2018-Feb-16 00:30N 50°58' E 001°52'0 0.0
2018-Feb-15 23:55N 50°58' E 001°52'0 0.7
2018-Feb-15 23:19N 50°58' E 001°51'2 6.4
2018-Feb-15 23:00N 50°58' E 001°48'1019.3
2018-Feb-15 22:30N 51°01' E 001°33'918.8
2018-Feb-15 22:00N 51°07' E 001°22'1 2.4
2018-Feb-15 21:28N 51°07' E 001°20'0 0.3
2018-Feb-15 20:59N 51°07' E 001°20'613.8
2018-Feb-15 20:30N 51°03' E 001°28'918.6
2018-Feb-15 20:01N 50°59' E 001°42'611.8
2018-Feb-15 19:30N 50°58' E 001°51'0 0.0
2018-Feb-15 19:00N 50°58' E 001°51'4 8.4
2018-Feb-15 18:30N 50°58' E 001°44'816.4
2018-Feb-15 18:01N 51°01' E 001°32'917.9
2018-Feb-15 17:30N 51°07' E 001°21'1 1.1
2018-Feb-15 16:44N 51°07' E 001°20'1 3.5
2018-Feb-15 16:29N 51°07' E 001°21'917.9
2018-Feb-15 16:01N 51°04' E 001°34'918.1
2018-Feb-15 15:30N 50°58' E 001°45'4 7.4
2018-Feb-15 15:00N 50°58' E 001°51'0 0.0
2018-Feb-15 14:30N 50°58' E 001°51'510.2
2018-Feb-15 14:00N 50°58' E 001°43'918.3
2018-Feb-15 13:30N 51°03' E 001°30'813.3
2018-Feb-15 12:55N 51°07' E 001°20'0 0.0
2018-Feb-15 12:27N 51°07' E 001°20'1 1.2
2018-Feb-15 12:00N 51°07' E 001°21'816.4
2018-Feb-15 11:31N 51°03' E 001°32'816.0
2018-Feb-15 11:00N 50°59' E 001°43'510.0
2018-Feb-15 10:30N 50°58' E 001°51'0 0.0
2018-Feb-15 10:00N 50°58' E 001°51'3 6.0
2018-Feb-15 09:31N 50°58' E 001°46'918.2
2018-Feb-15 09:01N 51°02' E 001°33'917.8
2018-Feb-15 08:30N 51°07' E 001°21'1 1.7
2018-Feb-15 07:57N 51°07' E 001°20'0 0.5
2018-Feb-15 07:30N 51°07' E 001°20'816.9
2018-Feb-15 07:00N 51°04' E 001°32'918.1
2018-Feb-15 06:30N 50°59' E 001°44'5 8.8
2018-Feb-15 06:00N 50°58' E 001°51'0 0.0
2018-Feb-15 05:30N 50°58' E 001°51'4 7.7
2018-Feb-15 05:00N 50°58' E 001°45'917.4
2018-Feb-15 04:30N 51°01' E 001°32'917.5
2018-Feb-15 04:00N 51°07' E 001°21'1 2.0
2018-Feb-15 03:31N 51°07' E 001°20'0 0.0
2018-Feb-15 03:00N 51°07' E 001°20'5 9.4
2018-Feb-15 02:30N 51°06' E 001°27'816.9
2018-Feb-15 02:00N 51°02' E 001°39'815.3
2018-Feb-15 01:30N 50°58' E 001°50'1 1.9
2018-Feb-15 01:00N 50°58' E 001°51'2 3.5
2018-Feb-15 00:30N 50°58' E 001°48'1017.7
2018-Feb-14 23:57N 51°01' E 001°33'716.2
2018-Feb-14 23:30N 51°06' E 001°24'3 6.3
2018-Feb-14 23:00N 51°07' E 001°20'0 0.0
2018-Feb-14 22:30N 51°07' E 001°20'2 3.3
2018-Feb-14 22:00N 51°07' E 001°23'4 8.2
2018-Feb-14 21:31N 51°06' E 001°29'917.4
2018-Feb-14 21:00N 51°00' E 001°40'714.6
2018-Feb-14 20:30N 50°58' E 001°51'0 0.4
2018-Feb-14 20:00N 50°58' E 001°51'0 0.0
2018-Feb-14 19:30N 50°58' E 001°51'1 2.4
2018-Feb-14 19:00N 50°58' E 001°49'815.8
2018-Feb-14 18:30N 50°59' E 001°37'815.7
2018-Feb-14 18:01N 51°04' E 001°27'510.6
2018-Feb-14 17:30N 51°07' E 001°20'0 0.0
2018-Feb-14 16:58N 51°07' E 001°20'0 1.0
2018-Feb-14 16:29N 51°07' E 001°21'817.0
2018-Feb-14 16:00N 51°03' E 001°32'918.0
2018-Feb-14 15:30N 50°58' E 001°44'4 8.0
2018-Feb-14 14:59N 50°58' E 001°51'0 0.0
2018-Feb-14 14:30N 50°58' E 001°51'612.3
2018-Feb-14 14:00N 50°58' E 001°41'917.1
2018-Feb-14 13:30N 51°02' E 001°30'814.9
2018-Feb-14 13:00N 51°07' E 001°20'0 0.3
2018-Feb-14 12:30N 51°07' E 001°20'0 0.7
2018-Feb-14 12:01N 51°07' E 001°21'816.5
2018-Feb-14 11:30N 51°03' E 001°32'816.9
2018-Feb-14 11:00N 50°59' E 001°44'5 9.1
2018-Feb-14 10:29N 50°58' E 001°51'0 0.0
2018-Feb-14 10:00N 50°58' E 001°51'3 5.0
2018-Feb-14 09:30N 50°58' E 001°47'917.9
2018-Feb-14 09:00N 51°00' E 001°33'816.7
2018-Feb-14 08:30N 51°06' E 001°24'3 5.4
2018-Feb-14 07:59N 51°07' E 001°20'0 0.0
2018-Feb-14 07:27N 51°07' E 001°20'2 4.4
2018-Feb-14 07:00N 51°07' E 001°23'816.8
2018-Feb-14 06:31N 51°03' E 001°35'816.8
2018-Feb-14 06:01N 50°58' E 001°46'3 6.7
2018-Feb-14 05:30N 50°58' E 001°51'0 0.0
2018-Feb-14 05:00N 50°58' E 001°51'4 7.5
2018-Feb-14 04:30N 50°58' E 001°45'815.5
2018-Feb-14 04:00N 51°01' E 001°34'612.6
2018-Feb-14 03:31N 51°05' E 001°26'4 7.2
2018-Feb-14 02:54N 51°07' E 001°20'0 0.0
2018-Feb-14 02:30N 51°07' E 001°20'2 4.5
2018-Feb-14 02:00N 51°07' E 001°24'816.2
2018-Feb-14 01:30N 51°03' E 001°35'917.3
2018-Feb-14 01:00N 50°58' E 001°46'3 6.1
2018-Feb-14 00:29N 50°58' E 001°51'0 0.0
2018-Feb-13 23:58N 50°58' E 001°51'510.7
2018-Feb-13 23:30N 50°58' E 001°43'917.7
2018-Feb-13 23:00N 51°02' E 001°31'816.3
2018-Feb-13 22:30N 51°07' E 001°21'0 0.5
2018-Feb-13 21:49N 51°07' E 001°20'2 7.0
2018-Feb-13 21:31N 51°07' E 001°23'917.1
2018-Feb-13 21:00N 51°02' E 001°35'816.8
2018-Feb-13 20:30N 50°58' E 001°47'3 4.9
2018-Feb-13 19:57N 50°58' E 001°51'0 0.4
2018-Feb-13 19:30N 50°58' E 001°51'714.4
2018-Feb-13 19:01N 50°59' E 001°40'816.0
2018-Feb-13 18:31N 51°04' E 001°29'713.0
2018-Feb-13 17:59N 51°07' E 001°20'0 0.1
2018-Feb-13 17:28N 51°07' E 001°20'0 0.3
2018-Feb-13 16:58N 51°07' E 001°20'714.3
2018-Feb-13 16:30N 51°05' E 001°30'918.2
2018-Feb-13 16:01N 50°60' E 001°42'611.8
2018-Feb-13 15:30N 50°58' E 001°51'0 0.0
2018-Feb-13 15:00N 50°58' E 001°51'4 7.0
2018-Feb-13 14:30N 50°58' E 001°45'816.6
2018-Feb-13 14:00N 51°01' E 001°33'815.8
2018-Feb-13 13:30N 51°06' E 001°23'3 4.6
2018-Feb-13 12:57N 51°07' E 001°20'0 0.0
2018-Feb-13 12:29N 51°07' E 001°20'3 7.2
2018-Feb-13 12:01N 51°06' E 001°25'816.5
2018-Feb-13 11:31N 51°02' E 001°37'815.9
2018-Feb-13 11:00N 50°58' E 001°48'2 4.0
2018-Feb-13 10:28N 50°58' E 001°51'0 0.1
2018-Feb-13 10:00N 50°58' E 001°51'510.6
2018-Feb-13 09:30N 50°59' E 001°42'816.4
2018-Feb-13 09:00N 51°03' E 001°31'815.6
2018-Feb-13 08:30N 51°07' E 001°21'1 1.1
2018-Feb-13 08:00N 51°07' E 001°20'0 0.0
2018-Feb-13 07:30N 51°07' E 001°20'511.0
2018-Feb-13 07:00N 51°06' E 001°28'815.2
2018-Feb-13 06:31N 51°01' E 001°38'815.2
2018-Feb-13 06:00N 50°58' E 001°49'1 2.4
2018-Feb-13 05:30N 50°58' E 001°51'0 0.0
2018-Feb-13 05:00N 50°58' E 001°51'2 4.0
2018-Feb-13 04:30N 50°58' E 001°48'815.4
2018-Feb-13 04:00N 51°00' E 001°36'816.4
2018-Feb-13 03:31N 51°05' E 001°26'4 7.9
2018-Feb-13 02:59N 51°07' E 001°20'0 0.0
2018-Feb-13 02:30N 51°07' E 001°20'3 5.8
2018-Feb-13 02:00N 51°07' E 001°25'714.4
2018-Feb-13 01:30N 51°05' E 001°36'816.0
2018-Feb-13 01:00N 50°59' E 001°44'5 9.2
2018-Feb-13 00:30N 50°58' E 001°51'0 0.0
2018-Feb-13 00:00N 50°58' E 001°51'2 4.2
2018-Feb-12 23:30N 50°58' E 001°48'917.4
2018-Feb-12 23:00N 51°00' E 001°34'815.3
2018-Feb-12 22:30N 51°06' E 001°26'4 8.0
2018-Feb-12 22:00N 51°07' E 001°20'0 0.2
2018-Feb-12 21:30N 51°07' E 001°20'613.0
2018-Feb-12 21:00N 51°05' E 001°30'917.7
2018-Feb-12 20:30N 51°00' E 001°41'612.5
2018-Feb-12 20:01N 50°58' E 001°51'0 0.3
2018-Feb-12 19:23N 50°58' E 001°51'2 4.5
2018-Feb-12 19:00N 50°58' E 001°48'816.4
2018-Feb-12 18:31N 50°60' E 001°36'917.9
2018-Feb-12 18:01N 51°05' E 001°25'4 6.2
2018-Feb-12 17:27N 51°07' E 001°20'0 0.0
2018-Feb-12 16:56N 51°07' E 001°20'511.6
2018-Feb-12 16:31N 51°06' E 001°28'917.6
2018-Feb-12 16:00N 51°00' E 001°39'815.6
2018-Feb-12 15:31N 50°58' E 001°51'0 0.4
2018-Feb-12 14:59N 50°58' E 001°51'2 3.7
2018-Feb-12 14:30N 50°58' E 001°48'917.4
2018-Feb-12 14:00N 50°58' E 001°34'917.5
2018-Feb-12 13:30N 51°05' E 001°26'5 5.7
2018-Feb-12 12:43N 51°07' E 001°20'0 0.0
2018-Feb-12 12:30N 51°07' E 001°20'4 7.7
2018-Feb-12 12:01N 51°07' E 001°26'816.8
2018-Feb-12 11:30N 51°02' E 001°37'815.3
2018-Feb-12 11:01N 50°58' E 001°48'2 4.1
2018-Feb-12 10:30N 50°58' E 001°51'0 1.0
2018-Feb-12 10:00N 50°58' E 001°50'713.5
2018-Feb-12 09:30N 50°58' E 001°40'816.7
2018-Feb-12 09:01N 51°03' E 001°29'710.9
2018-Feb-12 08:21N 51°07' E 001°20'0 0.0
2018-Feb-12 07:53N 51°07' E 001°20'0 0.0
2018-Feb-12 07:30N 51°07' E 001°20'0 0.6
2018-Feb-12 07:00N 51°07' E 001°21'816.4
2018-Feb-12 06:30N 51°03' E 001°32'816.8
2018-Feb-12 06:01N 50°59' E 001°43'611.2
2018-Feb-12 05:30N 50°58' E 001°52'0 0.0
2018-Feb-12 05:00N 50°58' E 001°52'2 4.9
2018-Feb-12 04:30N 50°58' E 001°48'815.5
2018-Feb-12 04:00N 51°00' E 001°36'817.0
2018-Feb-12 03:30N 51°05' E 001°25'4 7.3
2018-Feb-12 02:58N 51°07' E 001°20'0 0.0
2018-Feb-12 02:24N 51°07' E 001°20'0 1.0
2018-Feb-12 02:00N 51°07' E 001°21'816.5
2018-Feb-12 01:30N 51°04' E 001°32'917.0
2018-Feb-12 01:00N 50°59' E 001°43'5 9.6
2018-Feb-12 00:30N 50°58' E 001°51'0 0.0
2018-Feb-12 00:00N 50°58' E 001°51'0 0.5
2018-Feb-11 23:30N 50°58' E 001°51'817.0
2018-Feb-11 23:00N 50°59' E 001°38'917.9
2018-Feb-11 22:31N 51°04' E 001°27'5 9.4
2018-Feb-11 21:58N 51°07' E 001°20'0 0.0
2018-Feb-11 21:23N 51°07' E 001°20'2 4.2
2018-Feb-11 21:00N 51°07' E 001°23'816.4
2018-Feb-11 20:31N 51°04' E 001°34'816.6
2018-Feb-11 20:00N 50°58' E 001°44'4 8.1
2018-Feb-11 19:30N 50°58' E 001°51'0 0.9
2018-Feb-11 19:00N 50°58' E 001°50'817.0
2018-Feb-11 18:30N 50°58' E 001°37'612.5
2018-Feb-11 18:00N 51°02' E 001°29'815.1
2018-Feb-11 17:30N 51°07' E 001°20'0 0.4
2018-Feb-11 16:57N 51°07' E 001°20'  
Track history (hours):
 
Tides and Currents Weather Stations Pressure Air Temp Water Temp Dewpoint Dewpoint Depression Visibility Wind Speed Wind Dir Waves Ship Positions

Pride Of Canterbury

Operator: P & O Ferries

Last reported at 2018-Feb-21 16:37 UTC. Time now 2018-Feb-21 17:41 UTC.
Position N 51°07' E 001°20'.

Length 180 m; draft 5.7 m.

Type: Passenger vessel. MMSI: 232001060.

Date/timePositionNaut miles runAvg speedWind from/ knotsBaromVisibWave heightAir tempDewpointWater temp
2018-Feb-21 16:37N 51°07' E 001°20'1 4.7
2018-Feb-21 16:30N 51°07' E 001°21'816.6
2018-Feb-21 16:01N 51°04' E 001°33'816.7
2018-Feb-21 15:30N 50°59' E 001°44'5 9.3
2018-Feb-21 15:00N 50°58' E 001°51'0 0.0
2018-Feb-21 14:25N 50°58' E 001°51'4 8.8
2018-Feb-21 14:01N 50°58' E 001°45'1018.4
2018-Feb-21 13:29N 51°02' E 001°31'917.9
2018-Feb-21 13:00N 51°07' E 001°20'1 0.7
2018-Feb-21 12:04N 51°07' E 001°20'0 0.9
2018-Feb-21 11:58N 51°07' E 001°20'816.9
2018-Feb-21 11:30N 51°04' E 001°31'918.6
2018-Feb-21 11:01N 50°59' E 001°43'5 5.8
2018-Feb-21 10:11N 50°58' E 001°51'0 0.4
2018-Feb-21 09:50N 50°58' E 001°51'413.0
2018-Feb-21 09:30N 50°58' E 001°44'914.1
2018-Feb-21 08:54N 51°00' E 001°31'717.1
2018-Feb-21 08:31N 51°05' E 001°24'2 1.4
2018-Feb-21 07:05N 51°07' E 001°22'117.1
2018-Feb-21 07:00N 51°07' E 001°24'917.1
2018-Feb-21 06:30N 51°02' E 001°36'816.9
2018-Feb-21 06:00N 50°58' E 001°48'2 4.3
2018-Feb-21 05:30N 50°58' E 001°51'0 0.0
2018-Feb-21 04:56N 50°58' E 001°51'2 5.5
2018-Feb-21 04:29N 50°58' E 001°47'1317.8
2018-Feb-21 03:47N 51°04' E 001°29'5 2.8
2018-Feb-21 01:51N 51°07' E 001°23'618.3
2018-Feb-21 01:30N 51°04' E 001°32'918.3
2018-Feb-21 01:00N 50°59' E 001°44'5 8.6
2018-Feb-21 00:27N 50°58' E 001°51'0 0.0
2018-Feb-21 00:00N 50°58' E 001°51'0 0.7
2018-Feb-20 23:25N 50°58' E 001°50'614.0
2018-Feb-20 22:59N 50°58' E 001°41'715.8
2018-Feb-20 22:30N 51°02' E 001°31'815.5
2018-Feb-20 21:59N 51°07' E 001°20'1 1.5
2018-Feb-20 21:28N 51°07' E 001°20'0 0.0
2018-Feb-20 20:57N 51°07' E 001°20'612.6
2018-Feb-20 20:31N 51°05' E 001°28'918.3
2018-Feb-20 20:00N 51°00' E 001°40'713.4
2018-Feb-20 19:29N 50°58' E 001°51'0 0.0
2018-Feb-20 19:00N 50°58' E 001°51'5 9.6
2018-Feb-20 18:30N 50°58' E 001°44'817.0
2018-Feb-20 18:01N 51°03' E 001°32'9 6.1
2018-Feb-20 16:32N 51°07' E 001°20'0 1.4
2018-Feb-20 16:29N 51°07' E 001°20'714.4
2018-Feb-20 16:00N 51°05' E 001°31'816.5
2018-Feb-20 15:31N 51°00' E 001°41'713.4
2018-Feb-20 15:00N 50°58' E 001°51'0 0.1
2018-Feb-20 14:28N 50°58' E 001°51'1 1.1
2018-Feb-20 13:58N 50°58' E 001°50'918.7
2018-Feb-20 13:28N 51°01' E 001°36'918.6
2018-Feb-20 13:00N 51°06' E 001°25'3 3.0
2018-Feb-20 11:53N 51°07' E 001°20'616.0
2018-Feb-20 11:30N 51°05' E 001°29'918.6
2018-Feb-20 11:00N 50°60' E 001°41'612.2
2018-Feb-20 10:30N 50°58' E 001°51'0 0.2
2018-Feb-20 10:00N 50°58' E 001°51'2 4.0
2018-Feb-20 09:29N 50°58' E 001°48'815.7
2018-Feb-20 09:00N 50°59' E 001°36'917.9
2018-Feb-20 08:30N 51°05' E 001°25'4 4.9
2018-Feb-20 07:42N 51°07' E 001°20'0 0.3
2018-Feb-20 07:19N 51°07' E 001°20'413.3
2018-Feb-20 07:00N 51°06' E 001°26'816.8
2018-Feb-20 06:31N 51°02' E 001°38'815.7
2018-Feb-20 06:01N 50°58' E 001°49'1 2.5
2018-Feb-20 05:28N 50°58' E 001°51'0 0.0
2018-Feb-20 05:00N 50°58' E 001°51'1 2.5
2018-Feb-20 04:30N 50°58' E 001°49'816.4
2018-Feb-20 04:00N 51°00' E 001°37'917.8
2018-Feb-20 03:31N 51°05' E 001°25'4 5.9
2018-Feb-20 02:51N 51°07' E 001°20'0 0.0
2018-Feb-20 02:28N 51°07' E 001°20'4 8.7
2018-Feb-20 02:00N 51°06' E 001°26'917.9
2018-Feb-20 01:30N 51°02' E 001°39'815.4
2018-Feb-20 01:00N 50°58' E 001°50'1 2.5
2018-Feb-20 00:31N 50°58' E 001°51'0 0.0
2018-Feb-20 00:00N 50°58' E 001°51'1 1.8
2018-Feb-19 23:30N 50°58' E 001°50'5 9.9
2018-Feb-19 23:00N 50°58' E 001°42'713.5
2018-Feb-19 22:31N 51°01' E 001°33'917.7
2018-Feb-19 21:59N 51°07' E 001°21'1 0.7
2018-Feb-19 20:52N 51°07' E 001°20'513.8
2018-Feb-19 20:30N 51°06' E 001°28'918.7
2018-Feb-19 20:00N 51°01' E 001°40'714.4
2018-Feb-19 19:31N 50°58' E 001°51'0 0.1
2018-Feb-19 19:00N 50°58' E 001°51'1 2.9
2018-Feb-19 18:30N 50°58' E 001°49'816.5
2018-Feb-19 18:00N 51°00' E 001°36'918.4
2018-Feb-19 17:30N 51°06' E 001°24'3 3.0
2018-Feb-19 16:28N 51°07' E 001°20'612.1
2018-Feb-19 16:00N 51°05' E 001°28'917.8
2018-Feb-19 15:30N 51°00' E 001°40'714.2
2018-Feb-19 15:00N 50°58' E 001°51'0 0.1
2018-Feb-19 14:21N 50°58' E 001°51'1 2.1
2018-Feb-19 14:00N 50°58' E 001°50'1017.8
2018-Feb-19 13:28N 51°01' E 001°35'818.3
2018-Feb-19 13:01N 51°06' E 001°24'3 3.0
2018-Feb-19 12:01N 51°07' E 001°20'0 1.4
2018-Feb-19 11:56N 51°07' E 001°20'716.0
2018-Feb-19 11:30N 51°05' E 001°31'918.5
2018-Feb-19 11:00N 50°60' E 001°42'611.7
2018-Feb-19 10:31N 50°58' E 001°51'0 0.0
2018-Feb-19 10:00N 50°58' E 001°51'1 1.6
2018-Feb-19 09:31N 50°58' E 001°50'816.0
2018-Feb-19 09:00N 50°60' E 001°37'917.7
2018-Feb-19 08:30N 51°05' E 001°26'4 6.1
2018-Feb-19 07:47N 51°07' E 001°20'0 0.1
2018-Feb-19 07:22N 51°07' E 001°20'3 9.6
2018-Feb-19 07:01N 51°06' E 001°25'816.9
2018-Feb-19 06:30N 51°02' E 001°37'816.4
2018-Feb-19 06:00N 50°58' E 001°48'2 3.0
2018-Feb-19 05:28N 50°58' E 001°51'0 0.0
2018-Feb-19 04:57N 50°58' E 001°51'2 4.2
2018-Feb-19 04:30N 50°58' E 001°48'1016.2
2018-Feb-19 03:55N 51°01' E 001°34'615.7
2018-Feb-19 03:30N 51°05' E 001°26'4 2.9
2018-Feb-19 02:07N 51°07' E 001°20'1 5.8
2018-Feb-19 02:00N 51°07' E 001°21'815.7
2018-Feb-19 01:30N 51°04' E 001°33'817.0
2018-Feb-19 01:01N 50°59' E 001°44'5 7.4
2018-Feb-19 00:22N 50°58' E 001°51'0 0.0
2018-Feb-18 23:57N 50°58' E 001°51'0 0.0
2018-Feb-18 23:27N 50°58' E 001°51'512.0
2018-Feb-18 23:01N 50°58' E 001°42'816.9
2018-Feb-18 22:30N 51°02' E 001°30'815.6
2018-Feb-18 21:58N 51°07' E 001°20'0 0.0
2018-Feb-18 21:21N 51°07' E 001°20'3 8.1
2018-Feb-18 21:00N 51°06' E 001°24'611.7
2018-Feb-18 20:31N 51°03' E 001°32'713.7
2018-Feb-18 20:00N 50°59' E 001°41'612.4
2018-Feb-18 19:31N 50°58' E 001°51'0 0.2
2018-Feb-18 18:56N 50°58' E 001°51'1 2.9
2018-Feb-18 18:30N 50°58' E 001°49'816.1
2018-Feb-18 18:00N 50°60' E 001°36'918.4
2018-Feb-18 17:31N 51°05' E 001°25'4 3.5
2018-Feb-18 16:29N 51°07' E 001°20'715.9
2018-Feb-18 16:00N 51°06' E 001°32'918.5
2018-Feb-18 15:31N 50°59' E 001°42'610.4
2018-Feb-18 14:58N 50°58' E 001°51'0 0.0
2018-Feb-18 14:24N 50°58' E 001°51'1 1.5
2018-Feb-18 14:00N 50°58' E 001°50'918.5
2018-Feb-18 13:30N 51°01' E 001°36'918.8
2018-Feb-18 13:00N 51°05' E 001°23'3 2.4
2018-Feb-18 11:54N 51°07' E 001°20'614.9
2018-Feb-18 11:30N 51°05' E 001°29'918.5
2018-Feb-18 11:00N 51°00' E 001°41'710.9
2018-Feb-18 10:24N 50°58' E 001°51'0 0.0
2018-Feb-18 10:00N 50°58' E 001°51'3 6.4
2018-Feb-18 09:30N 50°58' E 001°46'917.3
2018-Feb-18 09:00N 51°02' E 001°34'917.5
2018-Feb-18 08:30N 51°07' E 001°22'1 2.8
2018-Feb-18 08:00N 51°07' E 001°20'0 0.0
2018-Feb-18 07:28N 51°07' E 001°20'0 0.0
2018-Feb-18 06:59N 51°07' E 001°20'714.4
2018-Feb-18 06:31N 51°06' E 001°31'918.1
2018-Feb-18 06:00N 51°00' E 001°41'712.7
2018-Feb-18 05:29N 50°58' E 001°51'0 0.0
2018-Feb-18 05:01N 50°58' E 001°51'4 8.2
2018-Feb-18 04:30N 50°58' E 001°44'815.2
2018-Feb-18 03:59N 51°01' E 001°33'714.7
2018-Feb-18 03:30N 51°06' E 001°25'3 2.6
2018-Feb-18 02:14N 51°07' E 001°20'2 8.4
2018-Feb-18 02:00N 51°07' E 001°23'816.5
2018-Feb-18 01:31N 51°04' E 001°35'816.7
2018-Feb-18 01:01N 50°58' E 001°45'4 5.6
2018-Feb-18 00:20N 50°58' E 001°51'0 0.0
2018-Feb-18 00:00N 50°58' E 001°51'0 0.0
2018-Feb-17 23:28N 50°58' E 001°51'3 5.7
2018-Feb-17 23:01N 50°58' E 001°47'918.3
2018-Feb-17 22:31N 51°02' E 001°34'918.4
2018-Feb-17 22:00N 51°07' E 001°21'1 1.7
2018-Feb-17 21:29N 51°07' E 001°20'0 0.3
2018-Feb-17 20:58N 51°07' E 001°20'818.0
2018-Feb-17 20:30N 51°04' E 001°32'1019.2
2018-Feb-17 20:00N 50°58' E 001°45'4 6.1
2018-Feb-17 19:21N 50°58' E 001°51'0 0.0
2018-Feb-17 18:55N 50°58' E 001°51'0 1.1
2018-Feb-17 18:30N 50°58' E 001°50'815.5
2018-Feb-17 18:00N 50°59' E 001°38'918.6
2018-Feb-17 17:31N 51°05' E 001°27'5 7.8
2018-Feb-17 16:54N 51°07' E 001°20'0 0.0
2018-Feb-17 16:29N 51°07' E 001°20'511.0
2018-Feb-17 16:00N 51°06' E 001°28'918.2
2018-Feb-17 15:30N 51°01' E 001°40'714.5
2018-Feb-17 15:00N 50°58' E 001°51'0 0.4
2018-Feb-17 14:30N 50°58' E 001°51'2 4.0
2018-Feb-17 14:00N 50°58' E 001°48'1018.8
2018-Feb-17 13:30N 51°02' E 001°34'918.7
2018-Feb-17 13:00N 51°07' E 001°22'1 1.5
2018-Feb-17 12:18N 51°07' E 001°20'2 8.3
2018-Feb-17 12:01N 51°07' E 001°24'917.9
2018-Feb-17 11:30N 51°02' E 001°36'816.3
2018-Feb-17 11:00N 50°58' E 001°47'2 2.9
2018-Feb-17 10:16N 50°58' E 001°51'0 0.0
2018-Feb-17 09:56N 50°58' E 001°51'613.8
2018-Feb-17 09:30N 50°58' E 001°42'917.5
2018-Feb-17 09:00N 51°03' E 001°30'813.4
2018-Feb-17 08:26N 51°07' E 001°20'0 0.0
2018-Feb-17 07:55N 51°07' E 001°20'0 0.3
2018-Feb-17 07:30N 51°07' E 001°20'815.9
2018-Feb-17 07:01N 51°04' E 001°31'1019.1
2018-Feb-17 06:31N 50°59' E 001°44'5 9.9
2018-Feb-17 06:00N 50°58' E 001°52'0 0.0
2018-Feb-17 05:29N 50°58' E 001°52'0 0.0
2018-Feb-17 05:00N 50°58' E 001°52'0 0.8
2018-Feb-17 04:30N 50°58' E 001°51'815.8
2018-Feb-17 04:00N 50°59' E 001°39'918.3
2018-Feb-17 03:30N 51°05' E 001°27'510.3
2018-Feb-17 03:00N 51°07' E 001°20'0 0.0
2018-Feb-17 02:24N 51°07' E 001°20'0 0.8
2018-Feb-17 02:00N 51°07' E 001°21'815.8
2018-Feb-17 01:30N 51°05' E 001°33'917.4
2018-Feb-17 01:00N 50°59' E 001°43'510.7
2018-Feb-17 00:30N 50°58' E 001°51'0 0.0
2018-Feb-17 00:00N 50°58' E 001°51'0 0.0
2018-Feb-16 23:30N 50°58' E 001°51'611.2
2018-Feb-16 23:01N 50°59' E 001°42'816.5
2018-Feb-16 22:30N 51°02' E 001°30'8 5.6
2018-Feb-16 21:03N 51°07' E 001°20'0 0.0
2018-Feb-16 20:58N 51°07' E 001°20'511.6
2018-Feb-16 20:30N 51°06' E 001°28'1018.9
2018-Feb-16 20:00N 50°60' E 001°40'714.3
2018-Feb-16 19:30N 50°58' E 001°51'0 0.1
2018-Feb-16 19:00N 50°58' E 001°51'3 6.3
2018-Feb-16 18:30N 50°58' E 001°46'816.2
2018-Feb-16 18:01N 51°01' E 001°34'918.0
2018-Feb-16 17:31N 51°06' E 001°23'2 2.6
2018-Feb-16 16:48N 51°07' E 001°20'0 0.2
2018-Feb-16 16:29N 51°07' E 001°20'816.5
2018-Feb-16 16:01N 51°05' E 001°32'918.5
2018-Feb-16 15:30N 50°59' E 001°43'5 9.1
2018-Feb-16 14:56N 50°58' E 001°51'0 0.0
2018-Feb-16 14:19N 50°58' E 001°51'1 3.3
2018-Feb-16 14:01N 50°58' E 001°49'918.4
2018-Feb-16 13:30N 51°00' E 001°35'918.5
2018-Feb-16 13:01N 51°06' E 001°23'3 2.8
2018-Feb-16 12:06N 51°07' E 001°20'0 0.9
2018-Feb-16 11:59N 51°07' E 001°20'715.0
2018-Feb-16 11:30N 51°04' E 001°30'917.7
2018-Feb-16 11:00N 50°59' E 001°42'6 8.1
2018-Feb-16 10:18N 50°58' E 001°51'0 0.0
2018-Feb-16 09:58N 50°58' E 001°51'1 2.9
2018-Feb-16 09:30N 50°58' E 001°49'817.0
2018-Feb-16 09:00N 51°00' E 001°36'918.0
2018-Feb-16 08:30N 51°06' E 001°25'3 2.9
2018-Feb-16 07:23N 51°07' E 001°20'410.2
2018-Feb-16 07:00N 51°06' E 001°26'815.6
2018-Feb-16 06:30N 51°02' E 001°36'815.5
2018-Feb-16 06:00N 50°58' E 001°47'2 4.9
2018-Feb-16 05:30N 50°58' E 001°51'0 0.0
2018-Feb-16 05:00N 50°58' E 001°51'2 3.8
2018-Feb-16 04:30N 50°58' E 001°48'917.9
2018-Feb-16 04:00N 51°00' E 001°34'918.3
2018-Feb-16 03:30N 51°06' E 001°23'2 2.9
2018-Feb-16 02:44N 51°07' E 001°20'1 5.8
2018-Feb-16 02:30N 51°07' E 001°22'816.8
2018-Feb-16 02:00N 51°04' E 001°35'816.6
2018-Feb-16 01:31N 50°59' E 001°44'5 9.1
2018-Feb-16 01:00N 50°58' E 001°52'0 0.0
2018-Feb-16 00:30N 50°58' E 001°52'0 0.0
2018-Feb-15 23:55N 50°58' E 001°52'0 0.7
2018-Feb-15 23:19N 50°58' E 001°51'2 6.4
2018-Feb-15 23:00N 50°58' E 001°48'1019.3
2018-Feb-15 22:30N 51°01' E 001°33'918.8
2018-Feb-15 22:00N 51°07' E 001°22'1 2.4
2018-Feb-15 21:28N 51°07' E 001°20'0 0.3
2018-Feb-15 20:59N 51°07' E 001°20'613.8
2018-Feb-15 20:30N 51°03' E 001°28'918.6
2018-Feb-15 20:01N 50°59' E 001°42'611.8
2018-Feb-15 19:30N 50°58' E 001°51'0 0.0
2018-Feb-15 19:00N 50°58' E 001°51'4 8.4
2018-Feb-15 18:30N 50°58' E 001°44'816.4
2018-Feb-15 18:01N 51°01' E 001°32'917.9
2018-Feb-15 17:30N 51°07' E 001°21'1 1.1
2018-Feb-15 16:44N 51°07' E 001°20'1 3.5
2018-Feb-15 16:29N 51°07' E 001°21'917.9
2018-Feb-15 16:01N 51°04' E 001°34'918.1
2018-Feb-15 15:30N 50°58' E 001°45'4 7.4
2018-Feb-15 15:00N 50°58' E 001°51'0 0.0
2018-Feb-15 14:30N 50°58' E 001°51'510.2
2018-Feb-15 14:00N 50°58' E 001°43'918.3
2018-Feb-15 13:30N 51°03' E 001°30'813.3
2018-Feb-15 12:55N 51°07' E 001°20'0 0.0
2018-Feb-15 12:27N 51°07' E 001°20'1 1.2
2018-Feb-15 12:00N 51°07' E 001°21'816.4
2018-Feb-15 11:31N 51°03' E 001°32'816.0
2018-Feb-15 11:00N 50°59' E 001°43'510.0
2018-Feb-15 10:30N 50°58' E 001°51'0 0.0
2018-Feb-15 10:00N 50°58' E 001°51'3 6.0
2018-Feb-15 09:31N 50°58' E 001°46'918.2
2018-Feb-15 09:01N 51°02' E 001°33'917.8
2018-Feb-15 08:30N 51°07' E 001°21'1 1.7
2018-Feb-15 07:57N 51°07' E 001°20'0 0.5
2018-Feb-15 07:30N 51°07' E 001°20'816.9
2018-Feb-15 07:00N 51°04' E 001°32'918.1
2018-Feb-15 06:30N 50°59' E 001°44'5 8.8
2018-Feb-15 06:00N 50°58' E 001°51'0 0.0
2018-Feb-15 05:30N 50°58' E 001°51'4 7.7
2018-Feb-15 05:00N 50°58' E 001°45'917.4
2018-Feb-15 04:30N 51°01' E 001°32'917.5
2018-Feb-15 04:00N 51°07' E 001°21'1 2.0
2018-Feb-15 03:31N 51°07' E 001°20'0 0.0
2018-Feb-15 03:00N 51°07' E 001°20'5 9.4
2018-Feb-15 02:30N 51°06' E 001°27'816.9
2018-Feb-15 02:00N 51°02' E 001°39'815.3
2018-Feb-15 01:30N 50°58' E 001°50'1 1.9
2018-Feb-15 01:00N 50°58' E 001°51'2 3.5
2018-Feb-15 00:30N 50°58' E 001°48'1017.7
2018-Feb-14 23:57N 51°01' E 001°33'716.2
2018-Feb-14 23:30N 51°06' E 001°24'3 6.3
2018-Feb-14 23:00N 51°07' E 001°20'0 0.0
2018-Feb-14 22:30N 51°07' E 001°20'2 3.3
2018-Feb-14 22:00N 51°07' E 001°23'4 8.2
2018-Feb-14 21:31N 51°06' E 001°29'917.4
2018-Feb-14 21:00N 51°00' E 001°40'714.6
2018-Feb-14 20:30N 50°58' E 001°51'0 0.4
2018-Feb-14 20:00N 50°58' E 001°51'0 0.0
2018-Feb-14 19:30N 50°58' E 001°51'1 2.4
2018-Feb-14 19:00N 50°58' E 001°49'815.8
2018-Feb-14 18:30N 50°59' E 001°37'815.7
2018-Feb-14 18:01N 51°04' E 001°27'510.6
2018-Feb-14 17:30N 51°07' E 001°20'0 0.0
2018-Feb-14 16:58N 51°07' E 001°20'0 1.0
2018-Feb-14 16:29N 51°07' E 001°21'817.0
2018-Feb-14 16:00N 51°03' E 001°32'918.0
2018-Feb-14 15:30N 50°58' E 001°44'4 8.0
2018-Feb-14 14:59N 50°58' E 001°51'0 0.0
2018-Feb-14 14:30N 50°58' E 001°51'612.3
2018-Feb-14 14:00N 50°58' E 001°41'917.1
2018-Feb-14 13:30N 51°02' E 001°30'814.9
2018-Feb-14 13:00N 51°07' E 001°20'0 0.3
2018-Feb-14 12:30N 51°07' E 001°20'0 0.7
2018-Feb-14 12:01N 51°07' E 001°21'816.5
2018-Feb-14 11:30N 51°03' E 001°32'816.9
2018-Feb-14 11:00N 50°59' E 001°44'5 9.1
2018-Feb-14 10:29N 50°58' E 001°51'0 0.0
2018-Feb-14 10:00N 50°58' E 001°51'3 5.0
2018-Feb-14 09:30N 50°58' E 001°47'917.9
2018-Feb-14 09:00N 51°00' E 001°33'816.7
2018-Feb-14 08:30N 51°06' E 001°24'3 5.4
2018-Feb-14 07:59N 51°07' E 001°20'0 0.0
2018-Feb-14 07:27N 51°07' E 001°20'2 4.4
2018-Feb-14 07:00N 51°07' E 001°23'816.8
2018-Feb-14 06:31N 51°03' E 001°35'816.8
2018-Feb-14 06:01N 50°58' E 001°46'3 6.7
2018-Feb-14 05:30N 50°58' E 001°51'0 0.0
2018-Feb-14 05:00N 50°58' E 001°51'4 7.5
2018-Feb-14 04:30N 50°58' E 001°45'815.5
2018-Feb-14 04:00N 51°01' E 001°34'612.6
2018-Feb-14 03:31N 51°05' E 001°26'4 7.2
2018-Feb-14 02:54N 51°07' E 001°20'0 0.0
2018-Feb-14 02:30N 51°07' E 001°20'2 4.5
2018-Feb-14 02:00N 51°07' E 001°24'816.2
2018-Feb-14 01:30N 51°03' E 001°35'917.3
2018-Feb-14 01:00N 50°58' E 001°46'3 6.1
2018-Feb-14 00:29N 50°58' E 001°51'0 0.0
2018-Feb-13 23:58N 50°58' E 001°51'510.7
2018-Feb-13 23:30N 50°58' E 001°43'917.7
2018-Feb-13 23:00N 51°02' E 001°31'816.3
2018-Feb-13 22:30N 51°07' E 001°21'0 0.5
2018-Feb-13 21:49N 51°07' E 001°20'2 7.0
2018-Feb-13 21:31N 51°07' E 001°23'917.1
2018-Feb-13 21:00N 51°02' E 001°35'816.8
2018-Feb-13 20:30N 50°58' E 001°47'3 4.9
2018-Feb-13 19:57N 50°58' E 001°51'0 0.4
2018-Feb-13 19:30N 50°58' E 001°51'714.4
2018-Feb-13 19:01N 50°59' E 001°40'816.0
2018-Feb-13 18:31N 51°04' E 001°29'713.0
2018-Feb-13 17:59N 51°07' E 001°20'0 0.1
2018-Feb-13 17:28N 51°07' E 001°20'0 0.3
2018-Feb-13 16:58N 51°07' E 001°20'714.3
2018-Feb-13 16:30N 51°05' E 001°30'918.2
2018-Feb-13 16:01N 50°60' E 001°42'611.8
2018-Feb-13 15:30N 50°58' E 001°51'0 0.0
2018-Feb-13 15:00N 50°58' E 001°51'4 7.0
2018-Feb-13 14:30N 50°58' E 001°45'816.6
2018-Feb-13 14:00N 51°01' E 001°33'815.8
2018-Feb-13 13:30N 51°06' E 001°23'3 4.6
2018-Feb-13 12:57N 51°07' E 001°20'0 0.0
2018-Feb-13 12:29N 51°07' E 001°20'3 7.2
2018-Feb-13 12:01N 51°06' E 001°25'816.5
2018-Feb-13 11:31N 51°02' E 001°37'815.9
2018-Feb-13 11:00N 50°58' E 001°48'2 4.0
2018-Feb-13 10:28N 50°58' E 001°51'0 0.1
2018-Feb-13 10:00N 50°58' E 001°51'510.6
2018-Feb-13 09:30N 50°59' E 001°42'816.4
2018-Feb-13 09:00N 51°03' E 001°31'815.6
2018-Feb-13 08:30N 51°07' E 001°21'1 1.1
2018-Feb-13 08:00N 51°07' E 001°20'0 0.0
2018-Feb-13 07:30N 51°07' E 001°20'511.0
2018-Feb-13 07:00N 51°06' E 001°28'815.2
2018-Feb-13 06:31N 51°01' E 001°38'815.2
2018-Feb-13 06:00N 50°58' E 001°49'1 2.4
2018-Feb-13 05:30N 50°58' E 001°51'0 0.0
2018-Feb-13 05:00N 50°58' E 001°51'2 4.0
2018-Feb-13 04:30N 50°58' E 001°48'815.4
2018-Feb-13 04:00N 51°00' E 001°36'816.4
2018-Feb-13 03:31N 51°05' E 001°26'4 7.9
2018-Feb-13 02:59N 51°07' E 001°20'0 0.0
2018-Feb-13 02:30N 51°07' E 001°20'3 5.8
2018-Feb-13 02:00N 51°07' E 001°25'714.4
2018-Feb-13 01:30N 51°05' E 001°36'816.0
2018-Feb-13 01:00N 50°59' E 001°44'5 9.2
2018-Feb-13 00:30N 50°58' E 001°51'0 0.0
2018-Feb-13 00:00N 50°58' E 001°51'2 4.2
2018-Feb-12 23:30N 50°58' E 001°48'917.4
2018-Feb-12 23:00N 51°00' E 001°34'815.3
2018-Feb-12 22:30N 51°06' E 001°26'4 8.0
2018-Feb-12 22:00N 51°07' E 001°20'0 0.2
2018-Feb-12 21:30N 51°07' E 001°20'613.0
2018-Feb-12 21:00N 51°05' E 001°30'917.7
2018-Feb-12 20:30N 51°00' E 001°41'612.5
2018-Feb-12 20:01N 50°58' E 001°51'0 0.3
2018-Feb-12 19:23N 50°58' E 001°51'2 4.5
2018-Feb-12 19:00N 50°58' E 001°48'816.4
2018-Feb-12 18:31N 50°60' E 001°36'917.9
2018-Feb-12 18:01N 51°05' E 001°25'4 6.2
2018-Feb-12 17:27N 51°07' E 001°20'0 0.0
2018-Feb-12 16:56N 51°07' E 001°20'511.6
2018-Feb-12 16:31N 51°06' E 001°28'917.6
2018-Feb-12 16:00N 51°00' E 001°39'815.6
2018-Feb-12 15:31N 50°58' E 001°51'0 0.4
2018-Feb-12 14:59N 50°58' E 001°51'2 3.7
2018-Feb-12 14:30N 50°58' E 001°48'917.4
2018-Feb-12 14:00N 50°58' E 001°34'917.5
2018-Feb-12 13:30N 51°05' E 001°26'5 5.7
2018-Feb-12 12:43N 51°07' E 001°20'0 0.0
2018-Feb-12 12:30N 51°07' E 001°20'4 7.7
2018-Feb-12 12:01N 51°07' E 001°26'816.8
2018-Feb-12 11:30N 51°02' E 001°37'815.3
2018-Feb-12 11:01N 50°58' E 001°48'2 4.1
2018-Feb-12 10:30N 50°58' E 001°51'0 1.0
2018-Feb-12 10:00N 50°58' E 001°50'713.5
2018-Feb-12 09:30N 50°58' E 001°40'816.7
2018-Feb-12 09:01N 51°03' E 001°29'710.9
2018-Feb-12 08:21N 51°07' E 001°20'0 0.0
2018-Feb-12 07:53N 51°07' E 001°20'0 0.0
2018-Feb-12 07:30N 51°07' E 001°20'0 0.6
2018-Feb-12 07:00N 51°07' E 001°21'816.4
2018-Feb-12 06:30N 51°03' E 001°32'816.8
2018-Feb-12 06:01N 50°59' E 001°43'611.2
2018-Feb-12 05:30N 50°58' E 001°52'0 0.0
2018-Feb-12 05:00N 50°58' E 001°52'2 4.9
2018-Feb-12 04:30N 50°58' E 001°48'815.5
2018-Feb-12 04:00N 51°00' E 001°36'817.0
2018-Feb-12 03:30N 51°05' E 001°25'4 7.3
2018-Feb-12 02:58N 51°07' E 001°20'0 0.0
2018-Feb-12 02:24N 51°07' E 001°20'0 1.0
2018-Feb-12 02:00N 51°07' E 001°21'816.5
2018-Feb-12 01:30N 51°04' E 001°32'917.0
2018-Feb-12 01:00N 50°59' E 001°43'5 9.6
2018-Feb-12 00:30N 50°58' E 001°51'0 0.0
2018-Feb-12 00:00N 50°58' E 001°51'0 0.5
2018-Feb-11 23:30N 50°58' E 001°51'817.0
2018-Feb-11 23:00N 50°59' E 001°38'917.9
2018-Feb-11 22:31N 51°04' E 001°27'5 9.4
2018-Feb-11 21:58N 51°07' E 001°20'0 0.0
2018-Feb-11 21:23N 51°07' E 001°20'2 4.2
2018-Feb-11 21:00N 51°07' E 001°23'816.4
2018-Feb-11 20:31N 51°04' E 001°34'816.6
2018-Feb-11 20:00N 50°58' E 001°44'4 8.1
2018-Feb-11 19:30N 50°58' E 001°51'0 0.9
2018-Feb-11 19:00N 50°58' E 001°50'817.0
2018-Feb-11 18:30N 50°58' E 001°37'612.5
2018-Feb-11 18:00N 51°02' E 001°29'815.1
2018-Feb-11 17:30N 51°07' E 001°20'0 0.4
2018-Feb-11 16:57N 51°07' E 001°20'  

Dump ship's entire track history